West Haven, Connecticut
Current Conditions -  °F | °C
As of 10:53 PM on Wednesday 28 Jan 2015 (Local Time) from KHVN Reporting Station
Clear Clear  
Wind Chill: 12°   Ceiling: Unl
Heat Index: 21°   Visibility: 10mi
Dew Point:   Wind: 7mph
Humidity: 44%   Direction: 340°NNW
Pressure: 30.23"   Gusts: NA
Location:  41.27°N, 72.95°W
Report Text: KHVN 290353Z AUTO 34006KT 10SM CLR M06/M17 A3023 RMK AO2 SLP236 T10611167
Loading
Personal Weather Stations






























Interactive Weather Map New forecast layout! Learn more

10-Day Weather Forecast

Advertisements
Track Severe Weather on mobile